sensor_id;sensor_type;location;lat;lon;timestamp;P1;durP1;ratioP1;P2;durP2;ratioP2
62149;SDS011;48134;53.586;10.610;2023-04-24T00:01:50;5.57;;;2.80;;
62149;SDS011;48134;53.586;10.610;2023-04-24T00:04:18;7.20;;;2.90;;
62149;SDS011;48134;53.586;10.610;2023-04-24T00:06:46;5.37;;;2.90;;
62149;SDS011;48134;53.586;10.610;2023-04-24T00:09:17;5.68;;;3.10;;
62149;SDS011;48134;53.586;10.610;2023-04-24T00:11:45;6.68;;;3.20;;
62149;SDS011;48134;53.586;10.610;2023-04-24T00:14:13;5.97;;;3.20;;
62149;SDS011;48134;53.586;10.610;2023-04-24T00:16:45;6.57;;;2.90;;
62149;SDS011;48134;53.586;10.610;2023-04-24T00:19:13;6.63;;;3.25;;
62149;SDS011;48134;53.586;10.610;2023-04-24T00:21:46;5.70;;;3.13;;
62149;SDS011;48134;53.586;10.610;2023-04-24T00:24:22;6.75;;;3.22;;
62149;SDS011;48134;53.586;10.610;2023-04-24T00:26:55;5.43;;;3.03;;
62149;SDS011;48134;53.586;10.610;2023-04-24T00:29:28;6.50;;;3.13;;
62149;SDS011;48134;53.586;10.610;2023-04-24T00:31:56;7.18;;;3.60;;
62149;SDS011;48134;53.586;10.610;2023-04-24T00:34:28;6.67;;;3.50;;
62149;SDS011;48134;53.586;10.610;2023-04-24T00:37:01;7.47;;;3.78;;
62149;SDS011;48134;53.586;10.610;2023-04-24T00:39:35;6.35;;;3.30;;
62149;SDS011;48134;53.586;10.610;2023-04-24T00:42:08;7.03;;;3.63;;
62149;SDS011;48134;53.586;10.610;2023-04-24T00:44:41;6.25;;;3.50;;
62149;SDS011;48134;53.586;10.610;2023-04-24T00:47:09;7.03;;;3.80;;
62149;SDS011;48134;53.586;10.610;2023-04-24T00:49:37;6.60;;;3.70;;
62149;SDS011;48134;53.586;10.610;2023-04-24T00:52:04;8.07;;;4.00;;
62149;SDS011;48134;53.586;10.610;2023-04-24T00:54:36;7.97;;;3.60;;
62149;SDS011;48134;53.586;10.610;2023-04-24T00:57:04;6.40;;;3.78;;
62149;SDS011;48134;53.586;10.610;2023-04-24T00:59:37;6.70;;;4.00;;
62149;SDS011;48134;53.586;10.610;2023-04-24T01:02:12;6.70;;;4.00;;
62149;SDS011;48134;53.586;10.610;2023-04-24T01:04:40;8.33;;;4.00;;
62149;SDS011;48134;53.586;10.610;2023-04-24T01:07:08;8.38;;;4.10;;
62149;SDS011;48134;53.586;10.610;2023-04-24T01:09:39;7.25;;;3.97;;
62149;SDS011;48134;53.586;10.610;2023-04-24T01:12:12;7.03;;;3.72;;
62149;SDS011;48134;53.586;10.610;2023-04-24T01:14:45;7.38;;;3.47;;
62149;SDS011;48134;53.586;10.610;2023-04-24T01:17:15;6.90;;;4.03;;
62149;SDS011;48134;53.586;10.610;2023-04-24T01:19:48;6.90;;;4.07;;
62149;SDS011;48134;53.586;10.610;2023-04-24T01:22:17;7.65;;;4.30;;
62149;SDS011;48134;53.586;10.610;2023-04-24T01:24:50;8.43;;;4.20;;
62149;SDS011;48134;53.586;10.610;2023-04-24T01:27:17;8.18;;;4.10;;
62149;SDS011;48134;53.586;10.610;2023-04-24T01:29:45;7.25;;;4.10;;
62149;SDS011;48134;53.586;10.610;2023-04-24T01:32:19;7.20;;;4.00;;
62149;SDS011;48134;53.586;10.610;2023-04-24T01:34:48;7.30;;;4.18;;
62149;SDS011;48134;53.586;10.610;2023-04-24T01:37:22;9.52;;;4.55;;
62149;SDS011;48134;53.586;10.610;2023-04-24T01:39:55;7.65;;;4.50;;
62149;SDS011;48134;53.586;10.610;2023-04-24T01:42:29;10.20;;;4.70;;
62149;SDS011;48134;53.586;10.610;2023-04-24T01:45:02;8.47;;;4.80;;
62149;SDS011;48134;53.586;10.610;2023-04-24T01:47:36;8.15;;;4.50;;
62149;SDS011;48134;53.586;10.610;2023-04-24T01:50:04;7.30;;;4.43;;
62149;SDS011;48134;53.586;10.610;2023-04-24T01:52:33;7.03;;;4.38;;
62149;SDS011;48134;53.586;10.610;2023-04-24T01:55:09;8.90;;;4.50;;
62149;SDS011;48134;53.586;10.610;2023-04-24T01:57:44;8.88;;;4.65;;
62149;SDS011;48134;53.586;10.610;2023-04-24T02:00:18;8.75;;;4.18;;
62149;SDS011;48134;53.586;10.610;2023-04-24T02:02:45;8.20;;;4.53;;
62149;SDS011;48134;53.586;10.610;2023-04-24T02:05:13;8.48;;;4.30;;
62149;SDS011;48134;53.586;10.610;2023-04-24T02:07:47;7.45;;;4.57;;
62149;SDS011;48134;53.586;10.610;2023-04-24T02:10:15;7.80;;;4.40;;
62149;SDS011;48134;53.586;10.610;2023-04-24T02:12:43;8.53;;;4.30;;
62149;SDS011;48134;53.586;10.610;2023-04-24T02:15:16;7.30;;;4.50;;
62149;SDS011;48134;53.586;10.610;2023-04-24T02:17:49;6.93;;;4.10;;
62149;SDS011;48134;53.586;10.610;2023-04-24T02:20:22;7.60;;;4.30;;
62149;SDS011;48134;53.586;10.610;2023-04-24T02:22:51;7.78;;;4.57;;
62149;SDS011;48134;53.586;10.610;2023-04-24T02:25:23;7.07;;;4.28;;
62149;SDS011;48134;53.586;10.610;2023-04-24T02:27:56;8.40;;;4.30;;
62149;SDS011;48134;53.586;10.610;2023-04-24T02:30:29;7.30;;;4.30;;
62149;SDS011;48134;53.586;10.610;2023-04-24T02:33:02;7.63;;;4.28;;
62149;SDS011;48134;53.586;10.610;2023-04-24T02:35:30;7.32;;;4.22;;
62149;SDS011;48134;53.586;10.610;2023-04-24T02:38:04;7.40;;;4.35;;
62149;SDS011;48134;53.586;10.610;2023-04-24T02:40:31;9.70;;;4.70;;
62149;SDS011;48134;53.586;10.610;2023-04-24T02:43:04;7.90;;;4.60;;
62149;SDS011;48134;53.586;10.610;2023-04-24T02:45:32;8.18;;;4.65;;
62149;SDS011;48134;53.586;10.610;2023-04-24T02:48:01;6.88;;;4.35;;
62149;SDS011;48134;53.586;10.610;2023-04-24T02:50:28;8.23;;;4.22;;
62149;SDS011;48134;53.586;10.610;2023-04-24T02:52:56;7.65;;;4.40;;
62149;SDS011;48134;53.586;10.610;2023-04-24T02:55:30;7.93;;;4.20;;
62149;SDS011;48134;53.586;10.610;2023-04-24T02:57:58;8.15;;;3.88;;
62149;SDS011;48134;53.586;10.610;2023-04-24T03:00:31;6.83;;;3.60;;
62149;SDS011;48134;53.586;10.610;2023-04-24T03:03:04;7.57;;;3.50;;
62149;SDS011;48134;53.586;10.610;2023-04-24T03:05:38;6.70;;;3.40;;
62149;SDS011;48134;53.586;10.610;2023-04-24T03:08:11;7.10;;;3.28;;
62149;SDS011;48134;53.586;10.610;2023-04-24T03:10:40;5.97;;;3.08;;
62149;SDS011;48134;53.586;10.610;2023-04-24T03:13:14;5.53;;;2.88;;
62149;SDS011;48134;53.586;10.610;2023-04-24T03:15:42;4.90;;;2.58;;
62149;SDS011;48134;53.586;10.610;2023-04-24T03:18:11;5.43;;;2.73;;
62149;SDS011;48134;53.586;10.610;2023-04-24T03:20:45;6.53;;;2.55;;
62149;SDS011;48134;53.586;10.610;2023-04-24T03:23:13;4.93;;;2.30;;
62149;SDS011;48134;53.586;10.610;2023-04-24T03:25:43;4.50;;;2.33;;
62149;SDS011;48134;53.586;10.610;2023-04-24T03:28:11;4.78;;;2.25;;
62149;SDS011;48134;53.586;10.610;2023-04-24T03:30:47;5.13;;;2.70;;
62149;SDS011;48134;53.586;10.610;2023-04-24T03:33:22;5.57;;;2.90;;
62149;SDS011;48134;53.586;10.610;2023-04-24T03:35:59;4.07;;;2.30;;
62149;SDS011;48134;53.586;10.610;2023-04-24T03:38:35;4.40;;;2.27;;
62149;SDS011;48134;53.586;10.610;2023-04-24T03:41:19;3.28;;;2.00;;
62149;SDS011;48134;53.586;10.610;2023-04-24T03:44:01;5.32;;;2.30;;
62149;SDS011;48134;53.586;10.610;2023-04-24T03:46:29;3.80;;;2.10;;
62149;SDS011;48134;53.586;10.610;2023-04-24T03:48:59;6.65;;;2.30;;
62149;SDS011;48134;53.586;10.610;2023-04-24T03:51:35;4.35;;;2.20;;
62149;SDS011;48134;53.586;10.610;2023-04-24T03:54:29;4.13;;;2.20;;
62149;SDS011;48134;53.586;10.610;2023-04-24T03:56:59;4.43;;;2.20;;
62149;SDS011;48134;53.586;10.610;2023-04-24T03:59:29;4.40;;;2.10;;
62149;SDS011;48134;53.586;10.610;2023-04-24T04:02:10;5.32;;;2.50;;
62149;SDS011;48134;53.586;10.610;2023-04-24T04:04:43;4.20;;;2.00;;
62149;SDS011;48134;53.586;10.610;2023-04-24T04:07:15;4.18;;;2.00;;
62149;SDS011;48134;53.586;10.610;2023-04-24T04:09:43;4.30;;;2.30;;
62149;SDS011;48134;53.586;10.610;2023-04-24T04:12:13;3.00;;;1.90;;
62149;SDS011;48134;53.586;10.610;2023-04-24T04:14:40;3.22;;;1.90;;
62149;SDS011;48134;53.586;10.610;2023-04-24T04:17:08;3.88;;;2.00;;
62149;SDS011;48134;53.586;10.610;2023-04-24T04:19:36;3.13;;;1.85;;
62149;SDS011;48134;53.586;10.610;2023-04-24T04:22:04;3.30;;;1.80;;
62149;SDS011;48134;53.586;10.610;2023-04-24T04:24:43;2.95;;;1.88;;
62149;SDS011;48134;53.586;10.610;2023-04-24T04:27:21;4.25;;;1.88;;
62149;SDS011;48134;53.586;10.610;2023-04-24T04:30:01;3.95;;;1.95;;
62149;SDS011;48134;53.586;10.610;2023-04-24T04:32:37;3.00;;;1.80;;
62149;SDS011;48134;53.586;10.610;2023-04-24T04:35:10;3.38;;;1.70;;
62149;SDS011;48134;53.586;10.610;2023-04-24T04:37:37;3.70;;;1.70;;
62149;SDS011;48134;53.586;10.610;2023-04-24T04:40:15;2.85;;;1.65;;
62149;SDS011;48134;53.586;10.610;2023-04-24T04:42:55;2.38;;;1.48;;
62149;SDS011;48134;53.586;10.610;2023-04-24T04:45:35;4.57;;;1.80;;
62149;SDS011;48134;53.586;10.610;2023-04-24T04:48:23;3.47;;;1.60;;
62149;SDS011;48134;53.586;10.610;2023-04-24T04:50:58;2.75;;;1.73;;
62149;SDS011;48134;53.586;10.610;2023-04-24T04:53:27;3.72;;;1.60;;
62149;SDS011;48134;53.586;10.610;2023-04-24T04:56:01;3.55;;;1.58;;
62149;SDS011;48134;53.586;10.610;2023-04-24T04:58:36;2.80;;;1.70;;
62149;SDS011;48134;53.586;10.610;2023-04-24T05:01:12;2.53;;;1.50;;
62149;SDS011;48134;53.586;10.610;2023-04-24T05:03:42;4.18;;;1.60;;
62149;SDS011;48134;53.586;10.610;2023-04-24T05:06:13;3.05;;;1.60;;
62149;SDS011;48134;53.586;10.610;2023-04-24T05:08:46;2.38;;;1.50;;
62149;SDS011;48134;53.586;10.610;2023-04-24T05:11:28;2.10;;;1.40;;
62149;SDS011;48134;53.586;10.610;2023-04-24T05:13:59;1.90;;;1.20;;
62149;SDS011;48134;53.586;10.610;2023-04-24T05:16:34;3.13;;;1.30;;
62149;SDS011;48134;53.586;10.610;2023-04-24T05:19:04;2.15;;;1.15;;
62149;SDS011;48134;53.586;10.610;2023-04-24T05:21:40;2.25;;;1.20;;
62149;SDS011;48134;53.586;10.610;2023-04-24T05:24:12;1.52;;;1.08;;
62149;SDS011;48134;53.586;10.610;2023-04-24T05:26:59;2.08;;;1.33;;
62149;SDS011;48134;53.586;10.610;2023-04-24T05:29:36;2.85;;;1.45;;
62149;SDS011;48134;53.586;10.610;2023-04-24T05:32:09;2.13;;;1.30;;
62149;SDS011;48134;53.586;10.610;2023-04-24T05:34:42;2.15;;;1.30;;
62149;SDS011;48134;53.586;10.610;2023-04-24T05:37:10;1.95;;;1.17;;
62149;SDS011;48134;53.586;10.610;2023-04-24T05:39:42;1.60;;;1.10;;
62149;SDS011;48134;53.586;10.610;2023-04-24T05:42:10;1.50;;;1.10;;
62149;SDS011;48134;53.586;10.610;2023-04-24T05:44:39;1.42;;;1.00;;
62149;SDS011;48134;53.586;10.610;2023-04-24T05:47:07;2.22;;;1.15;;
62149;SDS011;48134;53.586;10.610;2023-04-24T05:49:35;1.58;;;1.10;;
62149;SDS011;48134;53.586;10.610;2023-04-24T05:52:03;2.72;;;1.55;;
62149;SDS011;48134;53.586;10.610;2023-04-24T05:54:39;2.85;;;1.67;;
62149;SDS011;48134;53.586;10.610;2023-04-24T05:57:16;2.05;;;1.50;;
62149;SDS011;48134;53.586;10.610;2023-04-24T06:00:05;3.47;;;1.67;;
62149;SDS011;48134;53.586;10.610;2023-04-24T06:02:46;3.97;;;1.80;;
62149;SDS011;48134;53.586;10.610;2023-04-24T06:05:14;2.97;;;1.70;;
62149;SDS011;48134;53.586;10.610;2023-04-24T06:07:47;3.38;;;1.63;;
62149;SDS011;48134;53.586;10.610;2023-04-24T06:10:23;2.13;;;1.08;;
62149;SDS011;48134;53.586;10.610;2023-04-24T06:12:56;1.73;;;1.20;;
62149;SDS011;48134;53.586;10.610;2023-04-24T06:15:34;2.58;;;1.38;;
62149;SDS011;48134;53.586;10.610;2023-04-24T06:18:11;2.40;;;1.45;;
62149;SDS011;48134;53.586;10.610;2023-04-24T06:20:44;2.93;;;1.70;;
62149;SDS011;48134;53.586;10.610;2023-04-24T06:23:17;5.32;;;1.75;;
62149;SDS011;48134;53.586;10.610;2023-04-24T06:25:47;2.63;;;1.30;;
62149;SDS011;48134;53.586;10.610;2023-04-24T06:28:19;2.22;;;1.30;;
62149;SDS011;48134;53.586;10.610;2023-04-24T06:30:54;2.07;;;1.30;;
62149;SDS011;48134;53.586;10.610;2023-04-24T06:33:22;2.25;;;1.45;;
62149;SDS011;48134;53.586;10.610;2023-04-24T06:35:55;2.42;;;1.60;;
62149;SDS011;48134;53.586;10.610;2023-04-24T06:38:22;3.08;;;1.80;;
62149;SDS011;48134;53.586;10.610;2023-04-24T06:40:50;2.08;;;1.48;;
62149;SDS011;48134;53.586;10.610;2023-04-24T06:43:18;2.88;;;1.58;;
62149;SDS011;48134;53.586;10.610;2023-04-24T06:45:46;2.80;;;1.40;;
62149;SDS011;48134;53.586;10.610;2023-04-24T06:48:20;3.45;;;1.60;;
62149;SDS011;48134;53.586;10.610;2023-04-24T06:50:48;3.27;;;1.30;;
62149;SDS011;48134;53.586;10.610;2023-04-24T06:53:21;2.00;;;1.40;;
62149;SDS011;48134;53.586;10.610;2023-04-24T06:55:54;2.08;;;1.48;;
62149;SDS011;48134;53.586;10.610;2023-04-24T06:58:21;3.05;;;1.30;;
62149;SDS011;48134;53.586;10.610;2023-04-24T07:00:54;1.88;;;1.23;;
62149;SDS011;48134;53.586;10.610;2023-04-24T07:03:23;2.55;;;1.30;;
62149;SDS011;48134;53.586;10.610;2023-04-24T07:05:51;2.05;;;1.30;;
62149;SDS011;48134;53.586;10.610;2023-04-24T07:08:20;3.33;;;1.48;;
62149;SDS011;48134;53.586;10.610;2023-04-24T07:10:48;2.20;;;1.40;;
62149;SDS011;48134;53.586;10.610;2023-04-24T07:13:17;2.75;;;1.55;;
62149;SDS011;48134;53.586;10.610;2023-04-24T07:15:49;2.28;;;1.40;;
62149;SDS011;48134;53.586;10.610;2023-04-24T07:18:25;5.10;;;1.48;;
62149;SDS011;48134;53.586;10.610;2023-04-24T07:20:58;3.57;;;1.40;;
62149;SDS011;48134;53.586;10.610;2023-04-24T07:23:26;2.47;;;1.40;;
62149;SDS011;48134;53.586;10.610;2023-04-24T07:25:53;2.30;;;1.40;;
62149;SDS011;48134;53.586;10.610;2023-04-24T07:28:21;2.60;;;1.60;;
62149;SDS011;48134;53.586;10.610;2023-04-24T07:30:54;3.90;;;1.85;;
62149;SDS011;48134;53.586;10.610;2023-04-24T07:33:22;3.45;;;1.58;;
62149;SDS011;48134;53.586;10.610;2023-04-24T07:35:51;3.65;;;1.70;;
62149;SDS011;48134;53.586;10.610;2023-04-24T07:38:19;4.10;;;2.10;;
62149;SDS011;48134;53.586;10.610;2023-04-24T07:40:48;3.00;;;1.60;;
62149;SDS011;48134;53.586;10.610;2023-04-24T07:43:16;3.83;;;1.73;;
62149;SDS011;48134;53.586;10.610;2023-04-24T07:45:44;2.97;;;1.60;;
62149;SDS011;48134;53.586;10.610;2023-04-24T07:48:12;2.65;;;1.55;;
62149;SDS011;48134;53.586;10.610;2023-04-24T07:50:41;2.38;;;1.40;;
62149;SDS011;48134;53.586;10.610;2023-04-24T07:53:15;3.00;;;1.85;;
62149;SDS011;48134;53.586;10.610;2023-04-24T07:55:48;2.65;;;1.50;;
62149;SDS011;48134;53.586;10.610;2023-04-24T07:58:20;3.42;;;1.85;;
62149;SDS011;48134;53.586;10.610;2023-04-24T08:00:48;5.15;;;1.83;;
62149;SDS011;48134;53.586;10.610;2023-04-24T08:03:16;2.40;;;1.30;;
62149;SDS011;48134;53.586;10.610;2023-04-24T08:05:50;3.00;;;1.50;;
62149;SDS011;48134;53.586;10.610;2023-04-24T08:08:20;1.83;;;1.20;;
62149;SDS011;48134;53.586;10.610;2023-04-24T08:10:53;2.40;;;1.30;;
62149;SDS011;48134;53.586;10.610;2023-04-24T08:13:22;4.00;;;1.30;;
62149;SDS011;48134;53.586;10.610;2023-04-24T08:15:54;4.05;;;1.40;;
62149;SDS011;48134;53.586;10.610;2023-04-24T08:18:28;3.15;;;1.30;;
62149;SDS011;48134;53.586;10.610;2023-04-24T08:20:56;3.27;;;1.40;;
62149;SDS011;48134;53.586;10.610;2023-04-24T08:23:34;2.45;;;1.30;;
62149;SDS011;48134;53.586;10.610;2023-04-24T08:26:06;3.22;;;1.38;;
62149;SDS011;48134;53.586;10.610;2023-04-24T08:28:34;3.60;;;1.45;;
62149;SDS011;48134;53.586;10.610;2023-04-24T08:31:07;3.05;;;1.50;;
62149;SDS011;48134;53.586;10.610;2023-04-24T08:33:35;3.38;;;1.70;;
62149;SDS011;48134;53.586;10.610;2023-04-24T08:36:08;2.38;;;1.30;;
62149;SDS011;48134;53.586;10.610;2023-04-24T08:38:37;2.67;;;1.20;;
62149;SDS011;48134;53.586;10.610;2023-04-24T08:41:05;3.00;;;1.10;;
62149;SDS011;48134;53.586;10.610;2023-04-24T08:43:33;1.88;;;1.20;;
62149;SDS011;48134;53.586;10.610;2023-04-24T08:46:03;2.53;;;1.17;;
62149;SDS011;48134;53.586;10.610;2023-04-24T08:48:31;1.85;;;1.15;;
62149;SDS011;48134;53.586;10.610;2023-04-24T08:50:59;1.60;;;1.10;;
62149;SDS011;48134;53.586;10.610;2023-04-24T08:53:27;2.85;;;1.20;;
62149;SDS011;48134;53.586;10.610;2023-04-24T08:55:56;2.83;;;1.20;;
62149;SDS011;48134;53.586;10.610;2023-04-24T08:58:29;2.30;;;1.30;;
62149;SDS011;48134;53.586;10.610;2023-04-24T09:00:57;3.38;;;1.38;;
62149;SDS011;48134;53.586;10.610;2023-04-24T09:03:26;3.47;;;1.30;;
62149;SDS011;48134;53.586;10.610;2023-04-24T09:05:59;2.75;;;1.50;;
62149;SDS011;48134;53.586;10.610;2023-04-24T09:08:27;2.10;;;1.30;;
62149;SDS011;48134;53.586;10.610;2023-04-24T09:10:57;1.98;;;1.35;;
62149;SDS011;48134;53.586;10.610;2023-04-24T09:13:28;2.80;;;1.70;;
62149;SDS011;48134;53.586;10.610;2023-04-24T09:15:56;3.30;;;1.60;;
62149;SDS011;48134;53.586;10.610;2023-04-24T09:18:26;3.40;;;1.70;;
62149;SDS011;48134;53.586;10.610;2023-04-24T09:21:00;4.00;;;2.00;;
62149;SDS011;48134;53.586;10.610;2023-04-24T09:23:33;4.45;;;1.80;;
62149;SDS011;48134;53.586;10.610;2023-04-24T09:26:02;4.10;;;2.05;;
62149;SDS011;48134;53.586;10.610;2023-04-24T09:28:32;3.35;;;1.90;;
62149;SDS011;48134;53.586;10.610;2023-04-24T09:31:03;5.70;;;2.83;;
62149;SDS011;48134;53.586;10.610;2023-04-24T09:33:31;5.00;;;2.33;;
62149;SDS011;48134;53.586;10.610;2023-04-24T09:36:03;5.80;;;2.40;;
62149;SDS011;48134;53.586;10.610;2023-04-24T09:38:37;4.85;;;2.60;;
62149;SDS011;48134;53.586;10.610;2023-04-24T09:41:07;5.03;;;2.80;;
62149;SDS011;48134;53.586;10.610;2023-04-24T09:43:35;4.78;;;2.83;;
62149;SDS011;48134;53.586;10.610;2023-04-24T09:46:07;4.95;;;2.85;;
62149;SDS011;48134;53.586;10.610;2023-04-24T09:48:40;4.85;;;2.83;;
62149;SDS011;48134;53.586;10.610;2023-04-24T09:51:13;4.85;;;2.97;;
62149;SDS011;48134;53.586;10.610;2023-04-24T09:53:47;6.20;;;3.25;;
62149;SDS011;48134;53.586;10.610;2023-04-24T09:56:25;12.20;;;3.90;;
62149;SDS011;48134;53.586;10.610;2023-04-24T09:59:03;7.10;;;3.77;;
62149;SDS011;48134;53.586;10.610;2023-04-24T10:01:31;8.02;;;3.50;;
62149;SDS011;48134;53.586;10.610;2023-04-24T10:03:59;6.97;;;3.70;;
62149;SDS011;48134;53.586;10.610;2023-04-24T10:06:34;7.38;;;4.00;;
62149;SDS011;48134;53.586;10.610;2023-04-24T10:09:02;9.57;;;4.10;;
62149;SDS011;48134;53.586;10.610;2023-04-24T10:11:31;6.60;;;4.03;;
62149;SDS011;48134;53.586;10.610;2023-04-24T10:13:59;6.43;;;3.53;;
62149;SDS011;48134;53.586;10.610;2023-04-24T10:16:27;6.47;;;3.67;;
62149;SDS011;48134;53.586;10.610;2023-04-24T10:18:55;6.85;;;3.90;;
62149;SDS011;48134;53.586;10.610;2023-04-24T10:21:23;6.45;;;3.90;;
62149;SDS011;48134;53.586;10.610;2023-04-24T10:23:51;7.38;;;4.00;;
62149;SDS011;48134;53.586;10.610;2023-04-24T10:26:19;7.07;;;4.20;;
62149;SDS011;48134;53.586;10.610;2023-04-24T10:28:48;6.78;;;4.10;;
62149;SDS011;48134;53.586;10.610;2023-04-24T10:31:16;6.60;;;3.60;;
62149;SDS011;48134;53.586;10.610;2023-04-24T10:33:43;7.55;;;3.92;;
62149;SDS011;48134;53.586;10.610;2023-04-24T10:36:18;7.20;;;3.77;;
62149;SDS011;48134;53.586;10.610;2023-04-24T10:38:51;7.70;;;3.72;;
62149;SDS011;48134;53.586;10.610;2023-04-24T10:41:21;7.55;;;3.92;;
62149;SDS011;48134;53.586;10.610;2023-04-24T10:44:05;6.07;;;3.30;;
62149;SDS011;48134;53.586;10.610;2023-04-24T10:46:33;6.70;;;3.70;;
62149;SDS011;48134;53.586;10.610;2023-04-24T10:49:03;8.73;;;4.05;;
62149;SDS011;48134;53.586;10.610;2023-04-24T10:51:46;7.47;;;3.53;;
62149;SDS011;48134;53.586;10.610;2023-04-24T10:54:24;5.78;;;3.33;;
62149;SDS011;48134;53.586;10.610;2023-04-24T10:56:52;6.43;;;3.70;;
62149;SDS011;48134;53.586;10.610;2023-04-24T10:59:26;6.90;;;3.70;;
62149;SDS011;48134;53.586;10.610;2023-04-24T11:01:54;9.80;;;3.97;;
62149;SDS011;48134;53.586;10.610;2023-04-24T11:04:31;7.43;;;4.15;;
62149;SDS011;48134;53.586;10.610;2023-04-24T11:06:59;6.57;;;4.03;;
62149;SDS011;48134;53.586;10.610;2023-04-24T11:09:27;7.63;;;4.50;;
62149;SDS011;48134;53.586;10.610;2023-04-24T11:12:03;7.25;;;4.15;;
62149;SDS011;48134;53.586;10.610;2023-04-24T11:17:28;7.20;;;4.10;;
62149;SDS011;48134;53.586;10.610;2023-04-24T11:20:00;8.85;;;5.07;;
62149;SDS011;48134;53.586;10.610;2023-04-24T11:22:33;7.97;;;4.80;;
62149;SDS011;48134;53.586;10.610;2023-04-24T11:25:07;8.75;;;4.97;;
62149;SDS011;48134;53.586;10.610;2023-04-24T11:27:40;9.50;;;5.15;;
62149;SDS011;48134;53.586;10.610;2023-04-24T11:30:09;10.23;;;5.47;;
62149;SDS011;48134;53.586;10.610;2023-04-24T11:32:46;10.68;;;5.25;;
62149;SDS011;48134;53.586;10.610;2023-04-24T11:35:15;9.60;;;5.40;;
62149;SDS011;48134;53.586;10.610;2023-04-24T11:37:48;9.10;;;5.20;;
62149;SDS011;48134;53.586;10.610;2023-04-24T11:40:22;9.23;;;5.05;;
62149;SDS011;48134;53.586;10.610;2023-04-24T11:42:52;9.50;;;5.37;;
62149;SDS011;48134;53.586;10.610;2023-04-24T11:45:27;9.80;;;5.50;;
62149;SDS011;48134;53.586;10.610;2023-04-24T11:48:03;9.57;;;4.50;;
62149;SDS011;48134;53.586;10.610;2023-04-24T11:50:36;8.43;;;4.60;;
62149;SDS011;48134;53.586;10.610;2023-04-24T11:53:09;9.57;;;5.07;;
62149;SDS011;48134;53.586;10.610;2023-04-24T11:55:42;7.90;;;4.70;;
62149;SDS011;48134;53.586;10.610;2023-04-24T11:58:15;6.97;;;4.13;;
62149;SDS011;48134;53.586;10.610;2023-04-24T12:00:53;9.55;;;5.20;;
62149;SDS011;48134;53.586;10.610;2023-04-24T12:03:24;7.95;;;4.72;;
62149;SDS011;48134;53.586;10.610;2023-04-24T12:05:52;9.85;;;4.70;;
62149;SDS011;48134;53.586;10.610;2023-04-24T12:08:36;9.10;;;5.30;;
62149;SDS011;48134;53.586;10.610;2023-04-24T12:11:05;9.23;;;4.90;;
62149;SDS011;48134;53.586;10.610;2023-04-24T12:13:34;10.45;;;5.35;;
62149;SDS011;48134;53.586;10.610;2023-04-24T12:16:07;8.27;;;4.57;;
62149;SDS011;48134;53.586;10.610;2023-04-24T12:18:42;8.27;;;4.68;;
62149;SDS011;48134;53.586;10.610;2023-04-24T12:21:18;8.57;;;4.28;;
62149;SDS011;48134;53.586;10.610;2023-04-24T12:23:46;7.65;;;4.22;;
62149;SDS011;48134;53.586;10.610;2023-04-24T12:26:17;7.85;;;3.92;;
62149;SDS011;48134;53.586;10.610;2023-04-24T12:28:51;5.95;;;3.75;;
62149;SDS011;48134;53.586;10.610;2023-04-24T12:31:24;6.82;;;3.95;;
62149;SDS011;48134;53.586;10.610;2023-04-24T12:33:59;7.90;;;3.60;;
62149;SDS011;48134;53.586;10.610;2023-04-24T12:36:32;8.82;;;4.40;;
62149;SDS011;48134;53.586;10.610;2023-04-24T12:39:02;7.32;;;4.18;;
62149;SDS011;48134;53.586;10.610;2023-04-24T12:41:30;8.23;;;4.45;;
62149;SDS011;48134;53.586;10.610;2023-04-24T12:43:58;7.35;;;4.53;;
62149;SDS011;48134;53.586;10.610;2023-04-24T12:46:26;8.80;;;4.40;;
62149;SDS011;48134;53.586;10.610;2023-04-24T12:48:53;8.80;;;4.75;;
62149;SDS011;48134;53.586;10.610;2023-04-24T12:51:27;8.93;;;4.68;;
62149;SDS011;48134;53.586;10.610;2023-04-24T12:53:55;10.70;;;4.40;;
62149;SDS011;48134;53.586;10.610;2023-04-24T12:56:23;8.05;;;4.47;;
62149;SDS011;48134;53.586;10.610;2023-04-24T12:58:51;7.97;;;4.32;;
62149;SDS011;48134;53.586;10.610;2023-04-24T13:01:19;7.88;;;4.45;;
62149;SDS011;48134;53.586;10.610;2023-04-24T13:03:46;6.65;;;4.10;;
62149;SDS011;48134;53.586;10.610;2023-04-24T13:06:14;6.43;;;3.70;;
62149;SDS011;48134;53.586;10.610;2023-04-24T13:08:48;6.27;;;3.30;;
62149;SDS011;48134;53.586;10.610;2023-04-24T13:11:17;5.65;;;3.30;;
62149;SDS011;48134;53.586;10.610;2023-04-24T13:13:54;6.80;;;3.60;;
62149;SDS011;48134;53.586;10.610;2023-04-24T13:16:27;5.63;;;3.40;;
62149;SDS011;48134;53.586;10.610;2023-04-24T13:19:00;7.13;;;4.10;;
62149;SDS011;48134;53.586;10.610;2023-04-24T13:21:27;7.47;;;4.03;;
62149;SDS011;48134;53.586;10.610;2023-04-24T13:23:58;7.03;;;3.53;;
62149;SDS011;48134;53.586;10.610;2023-04-24T13:26:26;6.85;;;3.65;;
62149;SDS011;48134;53.586;10.610;2023-04-24T13:28:59;7.20;;;3.92;;
62149;SDS011;48134;53.586;10.610;2023-04-24T13:31:27;7.32;;;3.50;;
62149;SDS011;48134;53.586;10.610;2023-04-24T13:33:54;6.13;;;3.42;;
62149;SDS011;48134;53.586;10.610;2023-04-24T13:36:22;7.07;;;3.50;;
62149;SDS011;48134;53.586;10.610;2023-04-24T13:38:50;6.27;;;3.40;;
62149;SDS011;48134;53.586;10.610;2023-04-24T13:41:24;6.72;;;3.72;;
62149;SDS011;48134;53.586;10.610;2023-04-24T13:43:52;5.53;;;3.27;;
62149;SDS011;48134;53.586;10.610;2023-04-24T13:46:19;5.85;;;3.30;;
62149;SDS011;48134;53.586;10.610;2023-04-24T13:48:47;7.75;;;3.38;;
62149;SDS011;48134;53.586;10.610;2023-04-24T13:51:15;7.07;;;3.50;;
62149;SDS011;48134;53.586;10.610;2023-04-24T13:53:43;7.10;;;3.50;;
62149;SDS011;48134;53.586;10.610;2023-04-24T13:56:16;6.35;;;3.50;;
62149;SDS011;48134;53.586;10.610;2023-04-24T13:58:45;6.75;;;3.45;;
62149;SDS011;48134;53.586;10.610;2023-04-24T14:01:13;8.65;;;3.63;;
62149;SDS011;48134;53.586;10.610;2023-04-24T14:03:41;6.32;;;3.42;;
62149;SDS011;48134;53.586;10.610;2023-04-24T14:06:15;6.07;;;3.33;;
62149;SDS011;48134;53.586;10.610;2023-04-24T14:08:42;5.13;;;2.97;;
62149;SDS011;48134;53.586;10.610;2023-04-24T14:11:16;5.38;;;3.00;;
62149;SDS011;48134;53.586;10.610;2023-04-24T14:13:44;6.32;;;3.28;;
62149;SDS011;48134;53.586;10.610;2023-04-24T14:16:13;4.13;;;2.55;;
62149;SDS011;48134;53.586;10.610;2023-04-24T14:18:46;4.43;;;2.60;;
62149;SDS011;48134;53.586;10.610;2023-04-24T14:21:19;4.20;;;2.50;;
62149;SDS011;48134;53.586;10.610;2023-04-24T14:23:47;4.20;;;2.50;;
62149;SDS011;48134;53.586;10.610;2023-04-24T14:26:14;4.68;;;2.85;;
62149;SDS011;48134;53.586;10.610;2023-04-24T14:28:45;3.85;;;2.40;;
62149;SDS011;48134;53.586;10.610;2023-04-24T14:31:14;3.83;;;2.40;;
62149;SDS011;48134;53.586;10.610;2023-04-24T14:33:41;3.80;;;2.50;;
62149;SDS011;48134;53.586;10.610;2023-04-24T14:36:09;5.10;;;2.85;;
62149;SDS011;48134;53.586;10.610;2023-04-24T14:38:42;6.77;;;2.80;;
62149;SDS011;48134;53.586;10.610;2023-04-24T14:41:10;4.63;;;2.67;;
62149;SDS011;48134;53.586;10.610;2023-04-24T14:43:38;6.03;;;3.00;;
62149;SDS011;48134;53.586;10.610;2023-04-24T14:46:11;5.07;;;2.90;;
62149;SDS011;48134;53.586;10.610;2023-04-24T14:48:45;5.93;;;3.05;;
62149;SDS011;48134;53.586;10.610;2023-04-24T14:51:18;4.15;;;2.45;;
62149;SDS011;48134;53.586;10.610;2023-04-24T14:53:51;5.07;;;2.75;;
62149;SDS011;48134;53.586;10.610;2023-04-24T14:56:18;5.00;;;2.50;;
62149;SDS011;48134;53.586;10.610;2023-04-24T14:58:46;4.43;;;2.50;;
62149;SDS011;48134;53.586;10.610;2023-04-24T15:01:14;5.78;;;2.47;;